Time;durP1;ratioP1;P1;durP2;ratioP2;P2;SDS_P1;SDS_P2;PMS_P1;PMS_P2;Temp;Humidity;BMP_temperature;BMP_pressure;BME280_temperature;BME280_humidity;BME280_pressure;Samples;Min_cycle;Max_cycle;Signal;HPM_P1;HPM_P2
2022/03/08 00:00:31;;;;;;;11.07;5.70;;;;;;;;;;5058621;28;20041;-76
2022/03/08 00:02:57;;;;;;;11.48;5.93;;;;;;;;;;5075502;28;20045;-76
2022/03/08 00:05:23;;;;;;;9.40;5.53;;;;;;;;;;5075847;28;20055;-75
2022/03/08 00:07:50;;;;;;;12.20;5.78;;;;;;;;;;5076166;28;20462;-76
2022/03/08 00:10:16;;;;;;;10.07;5.35;;;;;;;;;;5058220;28;20036;-76
2022/03/08 00:12:42;;;;;;;11.98;7.25;;;;;;;;;;5075014;28;20056;-76
2022/03/08 00:15:12;;;;;;;10.85;6.22;;;;;;;;;;5074977;28;20048;-76
2022/03/08 00:17:38;;;;;;;7.93;5.57;;;;;;;;;;5058494;28;20124;-76
2022/03/08 00:20:09;;;;;;;11.98;6.32;;;;;;;;;;5075291;28;20047;-76
2022/03/08 00:22:36;;;;;;;10.57;6.20;;;;;;;;;;5074925;28;20057;-77
2022/03/08 00:25:03;;;;;;;12.73;5.72;;;;;;;;;;5075076;28;20067;-77
2022/03/08 00:27:30;;;;;;;8.70;5.60;;;;;;;;;;5074967;28;20098;-77
2022/03/08 00:29:56;;;;;;;12.27;7.05;;;;;;;;;;5058100;28;20036;-77
2022/03/08 00:32:22;;;;;;;11.48;6.25;;;;;;;;;;5058295;28;20238;-77
2022/03/08 00:34:48;;;;;;;12.65;7.15;;;;;;;;;;5056152;28;20409;-77
2022/03/08 00:37:14;;;;;;;10.48;5.40;;;;;;;;;;5071398;28;20044;-76
2022/03/08 00:39:40;;;;;;;13.00;6.80;;;;;;;;;;5071849;28;20380;-76
2022/03/08 00:42:11;;;;;;;13.30;5.68;;;;;;;;;;5071733;28;20086;-77
2022/03/08 00:44:37;;;;;;;9.85;6.32;;;;;;;;;;5055925;28;20131;-77
2022/03/08 00:47:04;;;;;;;14.27;6.72;;;;;;;;;;5072729;28;20119;-77
2022/03/08 00:49:30;;;;;;;11.20;6.05;;;;;;;;;;5072561;28;20037;-76
2022/03/08 00:51:56;;;;;;;11.05;6.18;;;;;;;;;;5055911;28;20594;-76
2022/03/08 00:54:22;;;;;;;9.70;5.47;;;;;;;;;;5072936;28;20094;-77
2022/03/08 00:56:48;;;;;;;10.23;6.43;;;;;;;;;;5056128;28;20032;-77
2022/03/08 00:59:14;;;;;;;11.38;6.38;;;;;;;;;;5072639;28;20047;-77
2022/03/08 01:01:40;;;;;;;12.15;6.47;;;;;;;;;;5055817;28;20040;-77
2022/03/08 01:04:06;;;;;;;13.13;6.78;;;;;;;;;;5072374;28;20044;-77
2022/03/08 01:06:32;;;;;;;12.82;6.07;;;;;;;;;;5072462;28;20045;-77
2022/03/08 01:08:58;;;;;;;15.20;6.38;;;;;;;;;;5055776;28;20074;-77
2022/03/08 01:11:24;;;;;;;12.73;6.40;;;;;;;;;;5072350;28;20056;-77
2022/03/08 01:13:50;;;;;;;12.82;6.10;;;;;;;;;;5055474;28;20087;-77
2022/03/08 01:16:16;;;;;;;13.38;5.80;;;;;;;;;;5073281;28;20408;-77
2022/03/08 01:18:43;;;;;;;9.55;5.93;;;;;;;;;;5073408;28;20040;-77
2022/03/08 01:21:11;;;;;;;9.88;6.38;;;;;;;;;;5056524;28;20098;-77
2022/03/08 01:23:37;;;;;;;14.38;7.60;;;;;;;;;;5056274;28;20032;-77
2022/03/08 01:26:03;;;;;;;12.55;6.55;;;;;;;;;;5073315;28;20471;-77
2022/03/08 01:28:29;;;;;;;15.65;7.13;;;;;;;;;;5073197;28;20079;-77
2022/03/08 01:30:55;;;;;;;11.98;6.75;;;;;;;;;;5073108;28;20051;-77
2022/03/08 01:33:21;;;;;;;10.88;6.90;;;;;;;;;;5072858;28;20594;-77
2022/03/08 01:35:47;;;;;;;13.98;6.38;;;;;;;;;;5055466;28;20048;-78
2022/03/08 01:38:13;;;;;;;13.23;6.65;;;;;;;;;;5072629;28;20057;-77
2022/03/08 01:40:39;;;;;;;10.10;6.32;;;;;;;;;;5055184;28;20093;-77
2022/03/08 01:43:05;;;;;;;12.73;6.43;;;;;;;;;;5055574;28;20040;-77
2022/03/08 01:45:33;;;;;;;12.57;7.47;;;;;;;;;;5072950;28;20125;-78
2022/03/08 01:47:59;;;;;;;13.02;7.57;;;;;;;;;;5072578;28;20078;-77
2022/03/08 01:50:25;;;;;;;12.15;6.82;;;;;;;;;;5072663;28;20097;-78
2022/03/08 01:52:51;;;;;;;13.13;7.15;;;;;;;;;;5072153;28;20047;-78
2022/03/08 01:55:18;;;;;;;18.42;7.03;;;;;;;;;;5072293;28;20070;-78
2022/03/08 01:57:45;;;;;;;11.60;7.00;;;;;;;;;;5072249;28;20048;-78
2022/03/08 02:00:13;;;;;;;13.15;7.45;;;;;;;;;;5055754;28;20037;-78
2022/03/08 02:02:39;;;;;;;13.07;7.75;;;;;;;;;;5072355;28;20431;-78
2022/03/08 02:05:05;;;;;;;12.45;7.78;;;;;;;;;;5071910;28;20064;-78
2022/03/08 02:07:31;;;;;;;13.85;8.45;;;;;;;;;;5071256;28;20040;-78
2022/03/08 02:09:59;;;;;;;13.57;7.10;;;;;;;;;;5071101;28;20047;-78
2022/03/08 02:12:25;;;;;;;12.90;7.70;;;;;;;;;;5054351;28;20057;-79
2022/03/08 02:14:51;;;;;;;16.05;8.68;;;;;;;;;;5054402;28;20063;-78
2022/03/08 02:17:16;;;;;;;15.45;7.78;;;;;;;;;;5071021;28;20052;-79
2022/03/08 02:19:43;;;;;;;12.10;7.95;;;;;;;;;;5070993;28;20036;-78
2022/03/08 02:22:09;;;;;;;13.88;6.57;;;;;;;;;;5054453;28;20044;-78
2022/03/08 02:24:34;;;;;;;14.80;7.78;;;;;;;;;;5054407;28;20078;-79
2022/03/08 02:27:01;;;;;;;14.45;8.00;;;;;;;;;;5054181;28;20071;-79
2022/03/08 02:29:27;;;;;;;13.27;7.80;;;;;;;;;;5054471;28;20040;-79
2022/03/08 02:31:53;;;;;;;12.13;7.40;;;;;;;;;;5054111;28;20070;-79
2022/03/08 02:34:19;;;;;;;12.38;6.80;;;;;;;;;;5054300;28;20036;-79
2022/03/08 02:37:05;;;;;;;14.68;7.72;;;;;;;;;;5070591;28;20120;-79
2022/03/08 02:39:31;;;;;;;12.70;7.00;;;;;;;;;;5071011;28;20041;-79
2022/03/08 02:41:57;;;;;;;15.13;7.97;;;;;;;;;;5053898;28;20040;-79
2022/03/08 02:44:24;;;;;;;13.32;8.10;;;;;;;;;;5070527;28;20033;-79
2022/03/08 02:46:50;;;;;;;12.70;7.65;;;;;;;;;;5054076;28;20047;-79
2022/03/08 02:49:16;;;;;;;15.85;8.27;;;;;;;;;;5070507;28;20041;-79
2022/03/08 02:51:42;;;;;;;17.83;8.80;;;;;;;;;;5053999;28;20036;-79
2022/03/08 02:54:08;;;;;;;13.57;7.72;;;;;;;;;;5070736;28;20040;-79
2022/03/08 02:56:34;;;;;;;17.02;9.07;;;;;;;;;;5053895;28;20047;-79
2022/03/08 02:59:00;;;;;;;16.02;7.82;;;;;;;;;;5052835;28;20127;-79
2022/03/08 03:01:26;;;;;;;14.48;7.80;;;;;;;;;;5053719;28;20127;-79
2022/03/08 03:03:52;;;;;;;15.48;8.48;;;;;;;;;;5053664;28;20068;-79
2022/03/08 03:06:18;;;;;;;15.40;7.38;;;;;;;;;;5053894;28;20091;-79
2022/03/08 03:08:44;;;;;;;14.02;7.20;;;;;;;;;;5053945;28;20040;-79
2022/03/08 03:11:10;;;;;;;14.23;8.07;;;;;;;;;;5070046;28;20057;-79
2022/03/08 03:13:36;;;;;;;16.73;8.35;;;;;;;;;;5070300;28;20043;-79
2022/03/08 03:16:02;;;;;;;16.65;8.88;;;;;;;;;;5053550;28;20093;-79
2022/03/08 03:18:28;;;;;;;14.98;8.15;;;;;;;;;;5070025;28;20047;-79
2022/03/08 03:20:54;;;;;;;20.48;7.53;;;;;;;;;;5066583;28;20455;-79
2022/03/08 03:23:20;;;;;;;16.70;8.38;;;;;;;;;;5067024;28;20060;-79
2022/03/08 03:25:46;;;;;;;18.83;8.27;;;;;;;;;;5049647;28;20078;-79
2022/03/08 03:28:12;;;;;;;17.98;8.00;;;;;;;;;;5049832;28;20055;-79
2022/03/08 03:30:38;;;;;;;15.13;7.35;;;;;;;;;;5050040;28;20051;-79
2022/03/08 03:33:04;;;;;;;17.85;8.43;;;;;;;;;;5049951;28;20095;-79
2022/03/08 03:35:30;;;;;;;17.45;8.45;;;;;;;;;;5050075;28;20083;-79
2022/03/08 03:37:56;;;;;;;13.82;8.60;;;;;;;;;;5066331;28;20405;-79
2022/03/08 03:40:22;;;;;;;16.08;8.68;;;;;;;;;;5049647;28;20040;-80
2022/03/08 03:42:48;;;;;;;17.50;8.82;;;;;;;;;;5066458;28;20051;-78
2022/03/08 03:45:14;;;;;;;18.50;9.27;;;;;;;;;;5066732;28;20044;-79
2022/03/08 03:47:41;;;;;;;15.90;8.82;;;;;;;;;;5070998;28;20043;-80
2022/03/08 03:50:08;;;;;;;18.17;7.55;;;;;;;;;;5071178;28;20041;-79
2022/03/08 03:52:34;;;;;;;15.45;8.35;;;;;;;;;;5071068;28;20047;-79
2022/03/08 03:55:00;;;;;;;20.23;8.40;;;;;;;;;;5071011;28;20415;-79
2022/03/08 03:57:26;;;;;;;17.08;8.00;;;;;;;;;;5070886;28;20139;-79
2022/03/08 03:59:52;;;;;;;18.75;9.13;;;;;;;;;;5070692;28;20123;-80
2022/03/08 04:02:18;;;;;;;13.82;7.72;;;;;;;;;;5069691;28;20059;-80
2022/03/08 04:04:44;;;;;;;13.40;7.50;;;;;;;;;;5070018;28;20041;-80
2022/03/08 04:07:10;;;;;;;22.60;8.98;;;;;;;;;;5053818;28;20048;-79
2022/03/08 04:09:36;;;;;;;17.27;9.30;;;;;;;;;;5071949;28;20358;-80
2022/03/08 04:12:02;;;;;;;24.38;9.18;;;;;;;;;;5073522;28;20447;-80
2022/03/08 04:14:29;;;;;;;16.65;8.43;;;;;;;;;;5056707;28;20041;-79
2022/03/08 04:16:55;;;;;;;15.98;7.88;;;;;;;;;;5073618;28;20044;-80
2022/03/08 04:19:21;;;;;;;16.50;8.57;;;;;;;;;;5056784;28;20055;-80
2022/03/08 04:21:47;;;;;;;17.05;8.90;;;;;;;;;;5073304;28;20059;-80
2022/03/08 04:24:12;;;;;;;18.10;9.00;;;;;;;;;;5073497;28;20044;-79
2022/03/08 04:26:38;;;;;;;16.35;8.27;;;;;;;;;;5056769;28;20040;-79
2022/03/08 04:29:05;;;;;;;16.08;8.25;;;;;;;;;;5073059;28;20040;-80
2022/03/08 04:31:32;;;;;;;20.23;8.70;;;;;;;;;;5056634;28;20032;-79
2022/03/08 04:33:58;;;;;;;17.55;9.57;;;;;;;;;;5073396;28;20049;-80
2022/03/08 04:36:24;;;;;;;16.08;9.23;;;;;;;;;;5073337;28;20033;-80
2022/03/08 04:38:50;;;;;;;21.88;9.68;;;;;;;;;;5056393;28;20477;-79
2022/03/08 04:41:16;;;;;;;17.63;8.73;;;;;;;;;;5073559;28;20098;-80
2022/03/08 04:43:42;;;;;;;17.30;8.38;;;;;;;;;;5057662;28;20124;-80
2022/03/08 04:46:08;;;;;;;22.42;8.50;;;;;;;;;;5074107;28;20115;-79
2022/03/08 04:48:34;;;;;;;18.95;8.75;;;;;;;;;;5056867;28;20142;-79
2022/03/08 04:51:00;;;;;;;18.70;8.68;;;;;;;;;;5072813;28;20044;-79
2022/03/08 04:53:26;;;;;;;21.30;9.88;;;;;;;;;;5073043;28;20044;-79
2022/03/08 04:55:51;;;;;;;21.55;9.68;;;;;;;;;;5057008;28;20184;-79
2022/03/08 04:58:17;;;;;;;20.65;9.95;;;;;;;;;;5057041;28;20048;-79
2022/03/08 05:00:43;;;;;;;23.13;9.65;;;;;;;;;;5074262;28;20106;-79
2022/03/08 05:03:09;;;;;;;21.02;10.55;;;;;;;;;;5057270;28;20036;-79
2022/03/08 05:05:38;;;;;;;23.05;10.77;;;;;;;;;;5073795;28;20377;-79
2022/03/08 05:08:04;;;;;;;26.98;10.43;;;;;;;;;;5073640;28;20049;-79
2022/03/08 05:10:30;;;;;;;23.13;9.95;;;;;;;;;;5056712;28;20051;-79
2022/03/08 05:12:56;;;;;;;23.73;10.05;;;;;;;;;;5057244;28;20400;-79
2022/03/08 05:15:22;;;;;;;20.65;10.60;;;;;;;;;;5055886;28;20286;-79
2022/03/08 05:17:48;;;;;;;22.08;9.65;;;;;;;;;;5055547;28;20050;-79
2022/03/08 05:20:14;;;;;;;21.10;10.77;;;;;;;;;;5072375;28;20412;-79
2022/03/08 05:22:40;;;;;;;24.58;10.90;;;;;;;;;;5071388;28;20040;-79
2022/03/08 05:25:06;;;;;;;18.70;9.02;;;;;;;;;;5072014;28;20044;-79
2022/03/08 05:27:33;;;;;;;24.50;9.95;;;;;;;;;;5055506;28;20090;-79
2022/03/08 05:29:59;;;;;;;21.95;9.35;;;;;;;;;;5072489;28;20043;-79
2022/03/08 05:32:24;;;;;;;19.20;9.00;;;;;;;;;;5071949;28;20036;-79
2022/03/08 05:34:50;;;;;;;20.27;9.13;;;;;;;;;;5055309;28;20488;-79
2022/03/08 05:37:16;;;;;;;21.90;9.68;;;;;;;;;;5055039;28;20477;-79
2022/03/08 05:39:43;;;;;;;19.00;9.70;;;;;;;;;;5055375;28;20037;-79
2022/03/08 05:42:09;;;;;;;28.63;10.95;;;;;;;;;;5071728;28;20158;-79
2022/03/08 05:44:35;;;;;;;22.63;10.70;;;;;;;;;;5055110;28;20667;-79
2022/03/08 05:47:01;;;;;;;27.75;12.10;;;;;;;;;;5055114;28;20131;-79
2022/03/08 05:49:27;;;;;;;21.60;11.02;;;;;;;;;;5055298;28;20125;-79
2022/03/08 05:51:53;;;;;;;21.88;10.23;;;;;;;;;;5054886;28;20041;-79
2022/03/08 05:54:19;;;;;;;20.73;10.55;;;;;;;;;;5071811;28;20086;-79
2022/03/08 05:56:45;;;;;;;21.40;10.07;;;;;;;;;;5071635;28;20040;-78
2022/03/08 05:59:11;;;;;;;22.20;10.85;;;;;;;;;;5054580;28;20496;-78
2022/03/08 06:01:37;;;;;;;26.05;11.27;;;;;;;;;;5055112;28;20040;-79
2022/03/08 06:04:03;;;;;;;30.23;11.40;;;;;;;;;;5055123;28;20055;-79
2022/03/08 06:06:29;;;;;;;20.35;10.05;;;;;;;;;;5054571;28;20037;-79
2022/03/08 06:08:55;;;;;;;18.33;10.32;;;;;;;;;;5054665;28;20040;-80
2022/03/08 06:11:21;;;;;;;24.38;10.77;;;;;;;;;;5054431;28;20497;-79
2022/03/08 06:13:47;;;;;;;28.55;11.65;;;;;;;;;;5054476;28;20451;-79
2022/03/08 06:16:13;;;;;;;21.23;10.73;;;;;;;;;;5070989;28;20036;-79
2022/03/08 06:18:40;;;;;;;25.00;10.63;;;;;;;;;;5054379;28;20040;-79
2022/03/08 06:21:06;;;;;;;25.20;12.02;;;;;;;;;;5071094;28;20047;-80
2022/03/08 06:23:32;;;;;;;22.23;10.13;;;;;;;;;;5054528;28;20036;-80
2022/03/08 06:25:58;;;;;;;23.65;11.25;;;;;;;;;;5054365;28;20036;-80
2022/03/08 06:28:24;;;;;;;26.58;10.82;;;;;;;;;;5071130;28;20044;-80
2022/03/08 06:30:49;;;;;;;27.95;11.48;;;;;;;;;;5054254;28;20041;-79
2022/03/08 06:33:15;;;;;;;25.95;11.45;;;;;;;;;;5054266;28;20474;-80
2022/03/08 06:35:41;;;;;;;24.25;10.52;;;;;;;;;;5071786;28;20050;-79
2022/03/08 06:38:08;;;;;;;25.65;10.75;;;;;;;;;;5071843;28;20785;-79
2022/03/08 06:40:34;;;;;;;23.85;12.50;;;;;;;;;;5070538;28;20038;-80
2022/03/08 06:43:00;;;;;;;18.63;9.93;;;;;;;;;;5069420;28;20123;-80
2022/03/08 06:45:25;;;;;;;26.23;11.57;;;;;;;;;;5069515;28;20040;-80
2022/03/08 06:47:51;;;;;;;25.80;10.50;;;;;;;;;;5069641;28;20075;-80
2022/03/08 06:50:17;;;;;;;22.77;10.02;;;;;;;;;;5052576;28;20040;-80
2022/03/08 06:52:43;;;;;;;26.85;10.77;;;;;;;;;;5069557;28;20043;-80
2022/03/08 06:55:10;;;;;;;29.95;11.70;;;;;;;;;;5069234;28;20182;-80
2022/03/08 06:57:37;;;;;;;27.98;11.25;;;;;;;;;;5069324;28;20554;-80
2022/03/08 07:00:04;;;;;;;27.02;11.23;;;;;;;;;;5052312;28;20182;-80
2022/03/08 07:02:29;;;;;;;27.15;12.18;;;;;;;;;;5069226;28;20519;-80
2022/03/08 07:04:55;;;;;;;30.35;11.85;;;;;;;;;;5052260;28;20036;-79
2022/03/08 07:07:21;;;;;;;26.45;12.30;;;;;;;;;;5052483;28;20708;-79
2022/03/08 07:09:47;;;;;;;27.17;12.32;;;;;;;;;;5052592;28;20141;-79
2022/03/08 07:12:14;;;;;;;25.65;11.13;;;;;;;;;;5068822;28;20101;-79
2022/03/08 07:14:40;;;;;;;25.67;11.80;;;;;;;;;;5052476;28;20044;-79
2022/03/08 07:17:06;;;;;;;23.58;10.88;;;;;;;;;;5069733;28;20389;-79
2022/03/08 07:19:32;;;;;;;30.38;12.25;;;;;;;;;;5069265;28;20556;-78
2022/03/08 07:21:58;;;;;;;30.55;11.68;;;;;;;;;;5068972;28;20123;-77
2022/03/08 07:24:24;;;;;;;24.23;10.35;;;;;;;;;;5068829;28;20131;-77
2022/03/08 07:26:50;;;;;;;27.60;12.30;;;;;;;;;;5052587;28;20124;-77
2022/03/08 07:29:19;;;;;;;26.45;12.48;;;;;;;;;;5052626;28;20494;-77
2022/03/08 07:31:45;;;;;;;28.80;12.55;;;;;;;;;;5051685;28;20037;-76
2022/03/08 07:34:11;;;;;;;23.80;11.57;;;;;;;;;;5069660;28;20071;-76
2022/03/08 07:36:38;;;;;;;22.95;11.07;;;;;;;;;;5051002;28;20071;-76
2022/03/08 07:39:04;;;;;;;24.10;11.82;;;;;;;;;;5048991;28;20036;-76
2022/03/08 07:41:30;;;;;;;21.35;10.57;;;;;;;;;;5048128;28;20028;-75
2022/03/08 07:43:56;;;;;;;26.98;10.40;;;;;;;;;;5065312;28;20098;-75
2022/03/08 07:46:22;;;;;;;26.73;11.70;;;;;;;;;;5069474;28;20136;-75
2022/03/08 07:48:48;;;;;;;22.52;11.13;;;;;;;;;;5069345;28;20040;-76
2022/03/08 07:51:14;;;;;;;26.30;10.43;;;;;;;;;;5069549;28;20055;-75
2022/03/08 07:53:40;;;;;;;21.92;10.00;;;;;;;;;;5069346;28;20492;-75
2022/03/08 07:56:06;;;;;;;23.85;10.18;;;;;;;;;;5069361;28;20408;-76
2022/03/08 07:58:34;;;;;;;20.38;10.48;;;;;;;;;;5069534;28;20044;-75
2022/03/08 08:01:00;;;;;;;22.73;11.13;;;;;;;;;;5069501;28;20070;-75
2022/03/08 08:03:26;;;;;;;24.08;11.23;;;;;;;;;;5050191;28;20626;-76
2022/03/08 08:05:52;;;;;;;20.65;10.75;;;;;;;;;;5052325;28;20044;-76
2022/03/08 08:08:18;;;;;;;20.45;10.77;;;;;;;;;;5053089;28;20493;-76
2022/03/08 08:10:43;;;;;;;22.52;10.18;;;;;;;;;;5053321;28;20455;-76
2022/03/08 08:13:09;;;;;;;19.73;10.20;;;;;;;;;;5053607;28;20102;-76
2022/03/08 08:15:37;;;;;;;19.45;9.20;;;;;;;;;;5052451;28;20083;-76
2022/03/08 08:18:03;;;;;;;19.20;9.13;;;;;;;;;;5052474;28;20036;-76
2022/03/08 08:20:29;;;;;;;14.95;9.40;;;;;;;;;;5052674;28;20032;-76
2022/03/08 08:22:55;;;;;;;13.77;8.00;;;;;;;;;;5052972;28;20487;-76
2022/03/08 08:25:21;;;;;;;15.20;9.55;;;;;;;;;;5049221;28;20037;-77
2022/03/08 08:27:47;;;;;;;14.48;8.77;;;;;;;;;;5068602;28;20049;-77
2022/03/08 08:30:13;;;;;;;13.90;7.72;;;;;;;;;;5068351;28;20059;-77
2022/03/08 08:32:40;;;;;;;13.10;8.23;;;;;;;;;;5052349;28;20127;-76
2022/03/08 08:35:06;;;;;;;16.45;8.98;;;;;;;;;;5051806;28;20536;-77
2022/03/08 08:37:32;;;;;;;13.25;8.43;;;;;;;;;;5068914;28;20159;-77
2022/03/08 08:39:58;;;;;;;12.43;8.57;;;;;;;;;;5069893;28;20143;-77
2022/03/08 08:42:24;;;;;;;12.45;8.25;;;;;;;;;;5069162;28;20040;-77
2022/03/08 08:44:50;;;;;;;15.35;8.05;;;;;;;;;;5069725;28;20503;-77
2022/03/08 08:47:17;;;;;;;11.98;7.55;;;;;;;;;;5069450;28;20064;-77
2022/03/08 08:49:43;;;;;;;12.68;8.18;;;;;;;;;;5069529;28;20041;-77
2022/03/08 08:52:09;;;;;;;13.50;8.52;;;;;;;;;;5052607;28;20408;-77
2022/03/08 08:54:35;;;;;;;10.70;8.00;;;;;;;;;;5052467;28;20480;-77
2022/03/08 08:57:01;;;;;;;13.05;7.60;;;;;;;;;;5051595;28;20097;-78
2022/03/08 08:59:27;;;;;;;14.40;7.78;;;;;;;;;;5052976;28;20075;-76
2022/03/08 09:01:53;;;;;;;10.93;8.00;;;;;;;;;;5052614;28;20040;-76
2022/03/08 09:04:19;;;;;;;12.18;7.13;;;;;;;;;;5069012;28;20040;-74
2022/03/08 09:06:45;;;;;;;14.38;8.20;;;;;;;;;;5052076;28;20036;-76
2022/03/08 09:09:12;;;;;;;12.52;7.50;;;;;;;;;;5069385;28;20044;-76
2022/03/08 09:11:38;;;;;;;11.55;7.65;;;;;;;;;;5068871;28;20139;-77
2022/03/08 09:14:04;;;;;;;10.93;6.85;;;;;;;;;;5068944;28;20481;-74
2022/03/08 09:16:30;;;;;;;13.73;7.85;;;;;;;;;;5069009;28;20041;-75
2022/03/08 09:18:57;;;;;;;10.77;7.65;;;;;;;;;;5051705;28;20044;-75
2022/03/08 09:21:23;;;;;;;19.77;8.43;;;;;;;;;;5068809;28;20034;-77
2022/03/08 09:23:49;;;;;;;13.43;7.95;;;;;;;;;;5068610;28;20055;-74
2022/03/08 09:26:15;;;;;;;13.55;8.02;;;;;;;;;;5069007;28;20052;-78
2022/03/08 09:28:41;;;;;;;11.07;6.97;;;;;;;;;;5069006;28;20044;-74
2022/03/08 09:31:07;;;;;;;13.75;7.55;;;;;;;;;;5068325;28;20044;-75
2022/03/08 09:33:33;;;;;;;12.55;7.10;;;;;;;;;;5051905;28;20054;-75
2022/03/08 09:35:59;;;;;;;12.82;7.72;;;;;;;;;;5068765;28;20048;-78
2022/03/08 09:38:25;;;;;;;14.02;7.50;;;;;;;;;;5052671;28;20079;-74
2022/03/08 09:40:52;;;;;;;15.27;8.15;;;;;;;;;;5071772;28;20146;-76
2022/03/08 09:43:18;;;;;;;12.65;7.28;;;;;;;;;;5071897;28;20151;-77
2022/03/08 09:45:44;;;;;;;14.10;8.00;;;;;;;;;;5055344;28;20084;-76
2022/03/08 09:48:10;;;;;;;12.73;7.60;;;;;;;;;;5071856;28;20058;-75
2022/03/08 09:50:37;;;;;;;13.90;7.00;;;;;;;;;;5071942;28;20048;-73
2022/03/08 09:53:03;;;;;;;12.98;6.85;;;;;;;;;;5071654;28;20127;-74
2022/03/08 09:55:29;;;;;;;17.17;8.55;;;;;;;;;;5055041;28;20127;-75
2022/03/08 09:57:55;;;;;;;14.30;7.05;;;;;;;;;;5054712;28;20057;-77
2022/03/08 10:00:23;;;;;;;10.40;7.13;;;;;;;;;;5071633;28;20039;-76
2022/03/08 10:02:51;;;;;;;12.93;8.30;;;;;;;;;;5054789;28;20508;-74
2022/03/08 10:05:21;;;;;;;11.48;7.28;;;;;;;;;;5071323;28;20040;-76
2022/03/08 10:08:19;;;;;;;12.07;6.38;;;;;;;;;;5054699;28;20040;-75
2022/03/08 10:10:46;;;;;;;10.40;6.45;;;;;;;;;;5047030;28;20058;-75
2022/03/08 10:13:12;;;;;;;10.90;6.35;;;;;;;;;;5054548;28;20051;-78
2022/03/08 10:15:39;;;;;;;8.82;5.50;;;;;;;;;;5054445;28;20036;-75
2022/03/08 10:18:05;;;;;;;9.93;6.25;;;;;;;;;;5071140;28;20072;-76
2022/03/08 10:20:32;;;;;;;8.35;5.97;;;;;;;;;;5054618;28;20503;-75
2022/03/08 10:22:58;;;;;;;7.15;5.82;;;;;;;;;;5054245;28;20408;-79
2022/03/08 10:25:26;;;;;;;8.68;6.28;;;;;;;;;;5054119;28;20040;-78
2022/03/08 10:27:55;;;;;;;13.38;6.53;;;;;;;;;;5071040;28;20148;-77
2022/03/08 10:30:22;;;;;;;9.65;6.40;;;;;;;;;;5054337;28;20507;-77
2022/03/08 10:32:48;;;;;;;9.32;5.50;;;;;;;;;;5054206;28;20493;-74
2022/03/08 10:35:28;;;;;;;8.80;5.43;;;;;;;;;;5054094;28;20539;-75
2022/03/08 10:37:57;;;;;;;10.63;6.05;;;;;;;;;;5070962;28;20045;-76
2022/03/08 10:40:30;;;;;;;10.35;5.47;;;;;;;;;;5070619;28;20055;-75
2022/03/08 10:43:03;;;;;;;8.05;4.55;;;;;;;;;;5070555;28;20045;-75
2022/03/08 10:45:30;;;;;;;8.38;5.13;;;;;;;;;;5053994;28;20503;-74
2022/03/08 10:47:56;;;;;;;8.82;5.22;;;;;;;;;;5053904;28;20511;-74
2022/03/08 10:50:24;;;;;;;7.50;5.28;;;;;;;;;;5053713;28;20045;-74
2022/03/08 10:52:51;;;;;;;7.20;4.40;;;;;;;;;;5053692;28;20063;-73
2022/03/08 10:55:18;;;;;;;6.03;4.45;;;;;;;;;;5070380;28;20254;-73
2022/03/08 10:57:49;;;;;;;6.63;4.28;;;;;;;;;;5053525;28;20051;-72
2022/03/08 11:00:15;;;;;;;;;;;;;;;;;;5054258;28;20044;-72
2022/03/08 11:02:49;;;;;;;7.38;4.13;;;;;;;;;;5070757;28;19923;-73
2022/03/08 11:05:16;;;;;;;7.63;4.38;;;;;;;;;;5053861;28;20515;-76
2022/03/08 11:07:42;;;;;;;7.65;4.30;;;;;;;;;;5070620;28;20033;-74
2022/03/08 11:10:09;;;;;;;7.60;4.30;;;;;;;;;;5070485;28;20051;-74
2022/03/08 11:12:35;;;;;;;8.82;4.70;;;;;;;;;;5053863;28;20110;-75
2022/03/08 11:15:02;;;;;;;6.50;4.15;;;;;;;;;;5070233;28;20044;-74
2022/03/08 11:17:28;;;;;;;6.65;4.03;;;;;;;;;;5053466;28;20063;-73
2022/03/08 11:19:55;;;;;;;7.65;4.40;;;;;;;;;;5053184;28;20067;-77
2022/03/08 11:22:21;;;;;;;8.38;5.28;;;;;;;;;;5070144;28;20039;-73
2022/03/08 11:24:48;;;;;;;9.40;4.60;;;;;;;;;;5053716;28;20555;-75
2022/03/08 11:27:15;;;;;;;7.28;4.60;;;;;;;;;;5053376;28;20405;-76
2022/03/08 11:29:41;;;;;;;10.30;4.70;;;;;;;;;;5053543;28;20037;-75
2022/03/08 11:32:11;;;;;;;8.60;5.03;;;;;;;;;;5053605;28;20098;-77
2022/03/08 11:34:41;;;;;;;4.97;3.90;;;;;;;;;;5053456;28;20064;-77
2022/03/08 11:37:14;;;;;;;6.38;4.20;;;;;;;;;;5053353;28;20040;-76
2022/03/08 11:39:43;;;;;;;7.03;4.78;;;;;;;;;;5051730;28;20266;-77
2022/03/08 11:42:18;;;;;;;7.22;4.28;;;;;;;;;;5066647;28;20118;-74
2022/03/08 11:44:55;;;;;;;7.38;4.18;;;;;;;;;;5049821;28;20036;-75
2022/03/08 11:47:21;;;;;;;5.45;3.90;;;;;;;;;;5066989;28;20063;-74
2022/03/08 11:49:52;;;;;;;8.35;4.47;;;;;;;;;;5049709;28;20044;-77
2022/03/08 11:52:20;;;;;;;5.63;4.07;;;;;;;;;;5050105;28;20581;-76
2022/03/08 11:54:57;;;;;;;7.15;4.40;;;;;;;;;;5066683;28;20129;-77
2022/03/08 11:57:41;;;;;;;8.75;4.50;;;;;;;;;;5049289;28;20404;-74
2022/03/08 12:00:17;;;;;;;8.23;4.53;;;;;;;;;;5049666;28;20044;-78
2022/03/08 12:02:47;;;;;;;6.45;4.20;;;;;;;;;;5049877;28;20040;-75
2022/03/08 12:05:32;;;;;;;6.80;4.05;;;;;;;;;;5066333;28;20041;-73
2022/03/08 12:08:18;;;;;;;7.65;4.60;;;;;;;;;;5049503;28;20044;-76
2022/03/08 12:10:44;;;;;;;5.47;3.92;;;;;;;;;;5066091;28;20044;-76
2022/03/08 12:13:12;;;;;;;7.15;4.90;;;;;;;;;;5066522;28;20106;-73
2022/03/08 12:15:58;;;;;;;9.27;4.13;;;;;;;;;;5066238;28;20052;-76
2022/03/08 12:18:33;;;;;;;4.95;3.58;;;;;;;;;;5049665;28;20469;-73
2022/03/08 12:21:17;;;;;;;5.22;4.07;;;;;;;;;;5049613;28;20044;-75
2022/03/08 12:23:52;;;;;;;7.13;3.97;;;;;;;;;;5049304;28;20409;-77
2022/03/08 12:26:38;;;;;;;5.43;3.45;;;;;;;;;;5066406;28;20045;-77
2022/03/08 12:29:04;;;;;;;7.18;3.90;;;;;;;;;;5066308;28;20048;-74
2022/03/08 12:31:31;;;;;;;4.35;3.45;;;;;;;;;;5052340;28;20056;-79
2022/03/08 12:34:01;;;;;;;5.47;3.40;;;;;;;;;;5069420;28;20060;-78
2022/03/08 12:36:27;;;;;;;6.07;4.15;;;;;;;;;;5069802;28;20050;-78
2022/03/08 12:38:54;;;;;;;7.20;3.45;;;;;;;;;;5069388;28;20044;-73
2022/03/08 12:41:26;;;;;;;6.65;3.97;;;;;;;;;;5069449;28;20094;-73
2022/03/08 12:43:59;;;;;;;5.10;3.47;;;;;;;;;;5053089;28;20136;-74
2022/03/08 12:46:25;;;;;;;6.18;3.15;;;;;;;;;;5069275;28;20033;-78
2022/03/08 12:48:55;;;;;;;5.80;3.80;;;;;;;;;;5052842;28;20481;-78
2022/03/08 12:51:22;;;;;;;6.20;4.80;;;;;;;;;;5052895;28;20055;-74
2022/03/08 12:53:50;;;;;;;5.78;4.00;;;;;;;;;;5069444;28;20052;-79
2022/03/08 12:56:17;;;;;;;6.20;3.70;;;;;;;;;;5052281;28;20049;-80
2022/03/08 12:58:43;;;;;;;5.43;3.67;;;;;;;;;;5052488;28;20515;-78
2022/03/08 13:01:10;;;;;;;6.55;4.28;;;;;;;;;;5052508;28;20044;-75
2022/03/08 13:03:37;;;;;;;7.22;4.00;;;;;;;;;;5069554;28;20041;-77
2022/03/08 13:06:04;;;;;;;6.28;4.07;;;;;;;;;;5052401;28;20044;-77
2022/03/08 13:08:31;;;;;;;6.97;3.78;;;;;;;;;;5068672;28;20105;-78
2022/03/08 13:11:01;;;;;;;6.47;3.78;;;;;;;;;;5068752;28;20218;-78
2022/03/08 13:13:27;;;;;;;8.02;4.00;;;;;;;;;;5052057;28;20044;-76
2022/03/08 13:15:54;;;;;;;7.05;3.92;;;;;;;;;;5069073;28;20135;-78
2022/03/08 13:18:21;;;;;;;5.25;4.03;;;;;;;;;;5052496;28;20044;-74
2022/03/08 13:20:51;;;;;;;7.05;4.45;;;;;;;;;;5051949;28;20052;-79
2022/03/08 13:23:18;;;;;;;5.80;4.20;;;;;;;;;;5052239;28;20071;-78
2022/03/08 13:25:44;;;;;;;6.07;4.25;;;;;;;;;;5068665;28;20412;-76
2022/03/08 13:28:12;;;;;;;7.60;4.70;;;;;;;;;;5068901;28;20094;-75
2022/03/08 13:30:45;;;;;;;8.75;4.97;;;;;;;;;;5068626;28;20044;-78
2022/03/08 13:33:32;;;;;;;8.60;4.53;;;;;;;;;;5051449;28;20048;-78
2022/03/08 13:36:09;;;;;;;10.07;4.10;;;;;;;;;;5055055;28;20052;-78
2022/03/08 13:38:34;;;;;;;5.40;4.15;;;;;;;;;;5055090;28;20084;-75
2022/03/08 13:41:02;;;;;;;7.05;4.13;;;;;;;;;;5055268;28;20072;-78
2022/03/08 13:43:29;;;;;;;5.05;3.55;;;;;;;;;;5055110;28;20079;-75
2022/03/08 13:45:55;;;;;;;5.60;3.75;;;;;;;;;;5071957;28;20071;-79
2022/03/08 13:48:29;;;;;;;6.45;3.65;;;;;;;;;;5055169;28;20446;-77
2022/03/08 13:50:55;;;;;;;4.97;3.53;;;;;;;;;;5071746;28;20040;-76
2022/03/08 13:53:22;;;;;;;7.72;3.33;;;;;;;;;;5071692;28;20400;-74
2022/03/08 13:55:53;;;;;;;8.85;3.03;;;;;;;;;;5055187;28;20044;-78
2022/03/08 13:58:20;;;;;;;5.97;3.33;;;;;;;;;;5054768;28;20475;-79
2022/03/08 14:00:47;;;;;;;5.32;3.25;;;;;;;;;;5054912;28;20097;-77
2022/03/08 14:03:14;;;;;;;6.63;3.63;;;;;;;;;;5071465;28;20041;-77
2022/03/08 14:05:50;;;;;;;5.05;3.42;;;;;;;;;;5071399;28;20040;-78
2022/03/08 14:08:27;;;;;;;3.83;3.35;;;;;;;;;;5071389;28;20079;-79
2022/03/08 14:10:54;;;;;;;5.45;3.20;;;;;;;;;;5071023;28;20048;-76
2022/03/08 14:13:21;;;;;;;6.75;3.45;;;;;;;;;;5071322;28;20048;-76
2022/03/08 14:15:55;;;;;;;4.28;3.30;;;;;;;;;;5054481;28;20050;-78
2022/03/08 14:18:21;;;;;;;5.03;3.10;;;;;;;;;;5054353;28;20041;-76
2022/03/08 14:20:47;;;;;;;6.68;3.40;;;;;;;;;;5071407;28;20066;-75
2022/03/08 14:23:13;;;;;;;5.03;3.60;;;;;;;;;;5054755;28;20135;-77
2022/03/08 14:25:58;;;;;;;5.32;2.92;;;;;;;;;;5054478;28;20127;-76
2022/03/08 14:28:43;;;;;;;4.70;2.88;;;;;;;;;;5054317;28;20186;-79
2022/03/08 14:31:40;;;;;;;3.88;2.50;;;;;;;;;;5071084;28;20048;-80